Ambler, AK

3:23 AM AKDT on September 30, 2014 (GMT -0800)
Shungnak AP, Shungnak, AK | Change Station
CLOSE
Current Station
Airport
Location: Shungnak AP, Shungnak, AK,
Elevation: 197 ft
Nearby Weather Stations

Elev 197 ft 66.89 °N, 157.17 °W | Updated 26 minutes ago

Light Rain
Light Rain
35 °F
Feels Like 27 °F
N
12
Wind Variable Wind from West

Today
High -- | Low -- °F
--% Chance of Precip.
Yesterday
High -- | Low -- °F
Precip. -- in
8:40 AM 8:00 PM
Waxing Crescent, 36% visible
Pressure 30.10 in
Visibility 10.0 miles
Clouds Overcast 2100 ft
Windchill 27 °F
Dew Point 33 °F
Humidity 92%
Rainfall 0.02 in
Snow Depth 0 in , 1 in , 0 in
UV 0 out of 12
Pollen Not available.
Air Quality Not available.
Flu Activity Not available.
METAR PAGH 301057Z AUTO 26010KT 10SM -RA OVC021 02/01 A3001 RMK AO2 RAB33SNEMM SLP193 P0001 T00170006 FZRANO

More Conditions Fewer Conditions

Pressure 30.10 in
Visibility 10.0 miles
Clouds Overcast 2100 ft
Windchill 27 °F
Dew Point 33 °F
Humidity 92%
Rainfall 0.02 in
Snow Depth 0 in , 1 in , 0 in
UV 0 out of 12
Pollen Not available.
Air Quality Not available.
Flu Activity Not available.
METAR PAGH 301057Z AUTO 26010KT 10SM -RA OVC021 02/01 A3001 RMK AO2 RAB33SNEMM SLP193 P0001 T00170006 FZRANO

More Conditions Fewer Conditions

10-Day Weather Forecast

Almanac

Astronomy

Sep. 30, 2014 Rise Set
Actual Time 8:40 AM AKDT 8:00 PM AKDT
Civil Twilight 7:47 AM AKDT 8:53 PM AKDT
Nautical Twilight 6:43 AM AKDT 9:56 PM AKDT
Astronomical Twilight 5:31 AM AKDT 11:07 PM AKDT
Moon 5:16 PM AKDT 10:26 PM AKDT
Length of Visible Light 13h 05m
Length of Day
11h 19m
Tomorrow will be 7m 23s shorter.
Waxing Crescent, 36% of the Moon is Illuminated
Today
Waxing Crescent
Oct 1
First Quarter
Oct 8
Full
Oct 15
Last Quarter
Oct 23
New

Today's Extremes

State Highs State Lows

Community

WunderPhotos

Upload Photos

1,757,617 photos uploaded!

WunderBlogs® & News

Nearby

Snow Depth

Station Depth Elevation
Munson Ridge 2 in 3100 ft
Grouse Creek Divide 0 in 700 ft
Turnagain Pass 1 in 1880 ft
Upper Tsaina River 0 in 1750 ft
Mt. Ryan 1 in 2800 ft

Earthquake Activity

City Distance Mag. Time & Date
No recent earthquake activity has been reported nearby.
Minimum magnitude displayed is 2.5.

Coastal Water Temperatures

Place Temperature
No Stations Reporting

Nearby Weather Stations